sensor_id;sensor_type;location;lat;lon;timestamp;P1;durP1;ratioP1;P2;durP2;ratioP2
65071;SDS011;51663;52.310;17.016;2024-03-22T00:00:59;14.40;;;11.53;;
65071;SDS011;51663;52.310;17.016;2024-03-22T00:04:15;13.43;;;11.40;;
65071;SDS011;51663;52.310;17.016;2024-03-22T00:07:17;13.97;;;12.37;;
65071;SDS011;51663;52.310;17.016;2024-03-22T00:10:18;14.03;;;12.20;;
65071;SDS011;51663;52.310;17.016;2024-03-22T00:13:19;14.93;;;12.13;;
65071;SDS011;51663;52.310;17.016;2024-03-22T00:16:20;13.30;;;11.53;;
65071;SDS011;51663;52.310;17.016;2024-03-22T00:19:21;13.93;;;12.23;;
65071;SDS011;51663;52.310;17.016;2024-03-22T00:22:22;14.43;;;11.27;;
65071;SDS011;51663;52.310;17.016;2024-03-22T00:25:24;15.50;;;12.60;;
65071;SDS011;51663;52.310;17.016;2024-03-22T00:28:25;14.30;;;12.17;;
65071;SDS011;51663;52.310;17.016;2024-03-22T00:31:26;15.43;;;13.17;;
65071;SDS011;51663;52.310;17.016;2024-03-22T00:34:28;15.40;;;12.87;;
65071;SDS011;51663;52.310;17.016;2024-03-22T00:37:29;13.27;;;11.53;;
65071;SDS011;51663;52.310;17.016;2024-03-22T00:40:30;15.50;;;13.20;;
65071;SDS011;51663;52.310;17.016;2024-03-22T00:43:31;17.43;;;13.63;;
65071;SDS011;51663;52.310;17.016;2024-03-22T00:46:32;13.47;;;11.37;;
65071;SDS011;51663;52.310;17.016;2024-03-22T00:49:34;15.13;;;12.13;;
65071;SDS011;51663;52.310;17.016;2024-03-22T00:52:35;30.10;;;19.80;;
65071;SDS011;51663;52.310;17.016;2024-03-22T00:55:36;30.20;;;18.53;;
65071;SDS011;51663;52.310;17.016;2024-03-22T00:58:37;15.67;;;12.70;;
65071;SDS011;51663;52.310;17.016;2024-03-22T01:01:38;13.87;;;11.77;;
65071;SDS011;51663;52.310;17.016;2024-03-22T01:04:39;14.47;;;12.10;;
65071;SDS011;51663;52.310;17.016;2024-03-22T01:07:41;15.70;;;12.87;;
65071;SDS011;51663;52.310;17.016;2024-03-22T01:10:42;16.03;;;12.17;;
65071;SDS011;51663;52.310;17.016;2024-03-22T01:13:43;17.57;;;13.13;;
65071;SDS011;51663;52.310;17.016;2024-03-22T01:16:44;16.20;;;13.17;;
65071;SDS011;51663;52.310;17.016;2024-03-22T01:19:46;15.07;;;12.43;;
65071;SDS011;51663;52.310;17.016;2024-03-22T01:22:47;14.50;;;12.57;;
65071;SDS011;51663;52.310;17.016;2024-03-22T01:25:48;15.40;;;11.77;;
65071;SDS011;51663;52.310;17.016;2024-03-22T01:28:49;16.10;;;12.87;;
65071;SDS011;51663;52.310;17.016;2024-03-22T01:31:51;15.00;;;12.47;;
65071;SDS011;51663;52.310;17.016;2024-03-22T01:34:52;19.33;;;13.90;;
65071;SDS011;51663;52.310;17.016;2024-03-22T01:37:53;17.70;;;13.60;;
65071;SDS011;51663;52.310;17.016;2024-03-22T01:40:54;18.27;;;14.27;;
65071;SDS011;51663;52.310;17.016;2024-03-22T01:43:56;19.00;;;15.03;;
65071;SDS011;51663;52.310;17.016;2024-03-22T01:46:58;18.53;;;14.57;;
65071;SDS011;51663;52.310;17.016;2024-03-22T01:50:02;19.23;;;14.73;;
65071;SDS011;51663;52.310;17.016;2024-03-22T01:53:04;21.03;;;16.30;;
65071;SDS011;51663;52.310;17.016;2024-03-22T01:56:06;19.27;;;15.70;;
65071;SDS011;51663;52.310;17.016;2024-03-22T01:59:08;21.50;;;16.20;;
65071;SDS011;51663;52.310;17.016;2024-03-22T02:02:09;20.63;;;16.17;;
65071;SDS011;51663;52.310;17.016;2024-03-22T02:05:12;20.93;;;15.60;;
65071;SDS011;51663;52.310;17.016;2024-03-22T02:08:20;20.17;;;16.37;;
65071;SDS011;51663;52.310;17.016;2024-03-22T02:11:21;23.33;;;16.57;;
65071;SDS011;51663;52.310;17.016;2024-03-22T02:14:22;20.60;;;16.63;;
65071;SDS011;51663;52.310;17.016;2024-03-22T02:17:24;22.53;;;16.53;;
65071;SDS011;51663;52.310;17.016;2024-03-22T02:20:25;22.77;;;15.77;;
65071;SDS011;51663;52.310;17.016;2024-03-22T02:26:34;21.50;;;16.83;;
65071;SDS011;51663;52.310;17.016;2024-03-22T02:29:35;20.40;;;16.40;;
65071;SDS011;51663;52.310;17.016;2024-03-22T02:32:37;22.23;;;16.93;;
65071;SDS011;51663;52.310;17.016;2024-03-22T02:35:39;23.37;;;16.97;;
65071;SDS011;51663;52.310;17.016;2024-03-22T02:38:41;22.27;;;16.43;;
65071;SDS011;51663;52.310;17.016;2024-03-22T02:41:42;21.13;;;15.40;;
65071;SDS011;51663;52.310;17.016;2024-03-22T02:44:43;22.27;;;15.57;;
65071;SDS011;51663;52.310;17.016;2024-03-22T02:47:44;20.07;;;15.77;;
65071;SDS011;51663;52.310;17.016;2024-03-22T02:50:46;22.13;;;16.40;;
65071;SDS011;51663;52.310;17.016;2024-03-22T02:53:47;22.43;;;16.93;;
65071;SDS011;51663;52.310;17.016;2024-03-22T02:56:49;23.73;;;16.27;;
65071;SDS011;51663;52.310;17.016;2024-03-22T02:59:50;22.43;;;17.13;;
65071;SDS011;51663;52.310;17.016;2024-03-22T03:02:51;23.43;;;17.37;;
65071;SDS011;51663;52.310;17.016;2024-03-22T03:05:52;24.13;;;17.33;;
65071;SDS011;51663;52.310;17.016;2024-03-22T03:08:54;23.27;;;17.90;;
65071;SDS011;51663;52.310;17.016;2024-03-22T03:11:55;22.53;;;17.53;;
65071;SDS011;51663;52.310;17.016;2024-03-22T03:14:56;22.90;;;17.63;;
65071;SDS011;51663;52.310;17.016;2024-03-22T03:17:57;26.87;;;18.43;;
65071;SDS011;51663;52.310;17.016;2024-03-22T03:20:58;27.47;;;19.23;;
65071;SDS011;51663;52.310;17.016;2024-03-22T03:23:59;26.30;;;18.97;;
65071;SDS011;51663;52.310;17.016;2024-03-22T03:27:01;25.93;;;18.70;;
65071;SDS011;51663;52.310;17.016;2024-03-22T03:30:03;25.63;;;17.53;;
65071;SDS011;51663;52.310;17.016;2024-03-22T03:33:05;23.53;;;17.33;;
65071;SDS011;51663;52.310;17.016;2024-03-22T03:36:06;25.23;;;17.00;;
65071;SDS011;51663;52.310;17.016;2024-03-22T03:39:08;24.30;;;17.23;;
65071;SDS011;51663;52.310;17.016;2024-03-22T03:42:09;22.00;;;16.80;;
65071;SDS011;51663;52.310;17.016;2024-03-22T03:45:11;21.63;;;16.33;;
65071;SDS011;51663;52.310;17.016;2024-03-22T03:48:13;21.93;;;15.93;;
65071;SDS011;51663;52.310;17.016;2024-03-22T03:51:14;18.20;;;14.37;;
65071;SDS011;51663;52.310;17.016;2024-03-22T03:54:15;18.80;;;14.23;;
65071;SDS011;51663;52.310;17.016;2024-03-22T03:57:17;19.87;;;14.17;;
65071;SDS011;51663;52.310;17.016;2024-03-22T04:00:19;19.70;;;14.87;;
65071;SDS011;51663;52.310;17.016;2024-03-22T04:03:20;18.67;;;13.93;;
65071;SDS011;51663;52.310;17.016;2024-03-22T04:06:21;19.57;;;14.73;;
65071;SDS011;51663;52.310;17.016;2024-03-22T04:09:23;19.20;;;13.50;;
65071;SDS011;51663;52.310;17.016;2024-03-22T04:12:24;22.10;;;14.33;;
65071;SDS011;51663;52.310;17.016;2024-03-22T04:15:25;20.07;;;14.20;;
65071;SDS011;51663;52.310;17.016;2024-03-22T04:18:26;21.53;;;14.57;;
65071;SDS011;51663;52.310;17.016;2024-03-22T04:21:28;19.03;;;13.77;;
65071;SDS011;51663;52.310;17.016;2024-03-22T04:24:29;18.60;;;14.03;;
65071;SDS011;51663;52.310;17.016;2024-03-22T04:27:30;21.40;;;14.43;;
65071;SDS011;51663;52.310;17.016;2024-03-22T04:30:31;18.67;;;13.37;;
65071;SDS011;51663;52.310;17.016;2024-03-22T04:33:33;20.13;;;14.20;;
65071;SDS011;51663;52.310;17.016;2024-03-22T04:36:34;19.67;;;14.33;;
65071;SDS011;51663;52.310;17.016;2024-03-22T04:39:35;20.10;;;14.20;;
65071;SDS011;51663;52.310;17.016;2024-03-22T04:42:37;21.23;;;13.60;;
65071;SDS011;51663;52.310;17.016;2024-03-22T04:45:38;20.53;;;14.00;;
65071;SDS011;51663;52.310;17.016;2024-03-22T04:48:39;23.77;;;14.57;;
65071;SDS011;51663;52.310;17.016;2024-03-22T04:51:40;23.07;;;15.83;;
65071;SDS011;51663;52.310;17.016;2024-03-22T04:54:41;23.07;;;15.70;;
65071;SDS011;51663;52.310;17.016;2024-03-22T04:57:43;27.23;;;16.00;;
65071;SDS011;51663;52.310;17.016;2024-03-22T05:00:44;26.87;;;16.83;;
65071;SDS011;51663;52.310;17.016;2024-03-22T05:03:46;26.27;;;16.43;;
65071;SDS011;51663;52.310;17.016;2024-03-22T05:06:48;25.77;;;17.00;;
65071;SDS011;51663;52.310;17.016;2024-03-22T05:09:50;29.07;;;17.77;;
65071;SDS011;51663;52.310;17.016;2024-03-22T05:12:51;27.10;;;17.30;;
65071;SDS011;51663;52.310;17.016;2024-03-22T05:15:52;28.33;;;17.03;;
65071;SDS011;51663;52.310;17.016;2024-03-22T05:18:53;24.90;;;16.63;;
65071;SDS011;51663;52.310;17.016;2024-03-22T05:21:55;29.90;;;18.40;;
65071;SDS011;51663;52.310;17.016;2024-03-22T05:24:56;30.03;;;18.30;;
65071;SDS011;51663;52.310;17.016;2024-03-22T05:27:57;30.27;;;19.10;;
65071;SDS011;51663;52.310;17.016;2024-03-22T05:30:58;30.10;;;18.53;;
65071;SDS011;51663;52.310;17.016;2024-03-22T05:34:00;29.03;;;18.13;;
65071;SDS011;51663;52.310;17.016;2024-03-22T05:37:01;31.57;;;19.17;;
65071;SDS011;51663;52.310;17.016;2024-03-22T05:40:02;34.00;;;19.63;;
65071;SDS011;51663;52.310;17.016;2024-03-22T05:43:07;29.03;;;19.00;;
65071;SDS011;51663;52.310;17.016;2024-03-22T05:46:08;31.90;;;19.17;;
65071;SDS011;51663;52.310;17.016;2024-03-22T05:49:09;32.17;;;18.30;;
65071;SDS011;51663;52.310;17.016;2024-03-22T05:52:10;30.57;;;18.97;;
65071;SDS011;51663;52.310;17.016;2024-03-22T05:55:12;32.23;;;20.23;;
65071;SDS011;51663;52.310;17.016;2024-03-22T05:58:14;34.10;;;20.93;;
65071;SDS011;51663;52.310;17.016;2024-03-22T06:01:15;33.97;;;20.50;;
65071;SDS011;51663;52.310;17.016;2024-03-22T06:04:16;36.87;;;20.90;;
65071;SDS011;51663;52.310;17.016;2024-03-22T06:07:17;33.43;;;19.57;;
65071;SDS011;51663;52.310;17.016;2024-03-22T06:10:18;34.10;;;18.90;;
65071;SDS011;51663;52.310;17.016;2024-03-22T06:13:19;32.33;;;20.03;;
65071;SDS011;51663;52.310;17.016;2024-03-22T06:16:21;33.90;;;19.67;;
65071;SDS011;51663;52.310;17.016;2024-03-22T06:19:22;35.03;;;20.60;;
65071;SDS011;51663;52.310;17.016;2024-03-22T06:22:24;35.87;;;20.27;;
65071;SDS011;51663;52.310;17.016;2024-03-22T06:25:25;35.73;;;20.23;;
65071;SDS011;51663;52.310;17.016;2024-03-22T06:28:27;33.37;;;20.73;;
65071;SDS011;51663;52.310;17.016;2024-03-22T06:31:29;34.83;;;21.07;;
65071;SDS011;51663;52.310;17.016;2024-03-22T06:34:30;32.60;;;20.97;;
65071;SDS011;51663;52.310;17.016;2024-03-22T06:37:31;34.87;;;20.43;;
65071;SDS011;51663;52.310;17.016;2024-03-22T06:40:32;34.67;;;20.13;;
65071;SDS011;51663;52.310;17.016;2024-03-22T06:43:34;41.77;;;20.67;;
65071;SDS011;51663;52.310;17.016;2024-03-22T06:46:35;33.10;;;21.13;;
65071;SDS011;51663;52.310;17.016;2024-03-22T06:49:38;32.60;;;19.90;;
65071;SDS011;51663;52.310;17.016;2024-03-22T06:52:39;33.67;;;20.57;;
65071;SDS011;51663;52.310;17.016;2024-03-22T06:55:40;35.77;;;21.13;;
65071;SDS011;51663;52.310;17.016;2024-03-22T06:58:41;35.90;;;20.70;;
65071;SDS011;51663;52.310;17.016;2024-03-22T07:01:42;36.40;;;21.23;;
65071;SDS011;51663;52.310;17.016;2024-03-22T07:04:44;62.38;;;23.70;;
65071;SDS011;51663;52.310;17.016;2024-03-22T07:07:45;42.90;;;22.40;;
65071;SDS011;51663;52.310;17.016;2024-03-22T07:10:46;36.20;;;21.50;;
65071;SDS011;51663;52.310;17.016;2024-03-22T07:13:47;27.63;;;17.80;;
65071;SDS011;51663;52.310;17.016;2024-03-22T07:16:49;28.50;;;19.07;;
65071;SDS011;51663;52.310;17.016;2024-03-22T07:19:50;27.23;;;17.50;;
65071;SDS011;51663;52.310;17.016;2024-03-22T07:22:52;25.17;;;17.30;;
65071;SDS011;51663;52.310;17.016;2024-03-22T07:25:53;26.50;;;18.13;;
65071;SDS011;51663;52.310;17.016;2024-03-22T07:28:55;22.23;;;16.77;;
65071;SDS011;51663;52.310;17.016;2024-03-22T07:31:56;24.48;;;16.58;;
65071;SDS011;51663;52.310;17.016;2024-03-22T07:34:57;23.73;;;16.70;;
65071;SDS011;51663;52.310;17.016;2024-03-22T07:37:59;25.77;;;16.80;;
65071;SDS011;51663;52.310;17.016;2024-03-22T07:41:00;19.03;;;14.60;;
65071;SDS011;51663;52.310;17.016;2024-03-22T07:44:01;18.97;;;14.57;;
65071;SDS011;51663;52.310;17.016;2024-03-22T07:47:03;20.98;;;15.50;;
65071;SDS011;51663;52.310;17.016;2024-03-22T07:50:05;19.25;;;15.70;;
65071;SDS011;51663;52.310;17.016;2024-03-22T07:53:06;23.38;;;17.35;;
65071;SDS011;51663;52.310;17.016;2024-03-22T07:56:08;20.23;;;15.48;;
65071;SDS011;51663;52.310;17.016;2024-03-22T07:59:09;18.65;;;13.32;;
65071;SDS011;51663;52.310;17.016;2024-03-22T08:02:11;17.00;;;13.50;;
65071;SDS011;51663;52.310;17.016;2024-03-22T08:05:12;29.83;;;21.08;;
65071;SDS011;51663;52.310;17.016;2024-03-22T08:08:13;15.70;;;13.13;;
65071;SDS011;51663;52.310;17.016;2024-03-22T08:11:14;19.20;;;14.95;;
65071;SDS011;51663;52.310;17.016;2024-03-22T08:14:16;18.48;;;14.38;;
65071;SDS011;51663;52.310;17.016;2024-03-22T08:17:17;17.65;;;13.93;;
65071;SDS011;51663;52.310;17.016;2024-03-22T08:20:18;16.50;;;13.68;;
65071;SDS011;51663;52.310;17.016;2024-03-22T08:23:19;17.98;;;14.20;;
65071;SDS011;51663;52.310;17.016;2024-03-22T08:26:23;15.55;;;13.00;;
65071;SDS011;51663;52.310;17.016;2024-03-22T08:29:24;13.35;;;11.77;;
65071;SDS011;51663;52.310;17.016;2024-03-22T08:32:25;19.55;;;14.25;;
65071;SDS011;51663;52.310;17.016;2024-03-22T08:35:27;18.33;;;14.38;;
65071;SDS011;51663;52.310;17.016;2024-03-22T08:38:28;18.77;;;14.25;;
65071;SDS011;51663;52.310;17.016;2024-03-22T08:41:29;17.25;;;14.18;;
65071;SDS011;51663;52.310;17.016;2024-03-22T08:44:30;16.33;;;13.45;;
65071;SDS011;51663;52.310;17.016;2024-03-22T08:47:31;20.08;;;14.60;;
65071;SDS011;51663;52.310;17.016;2024-03-22T08:50:34;19.10;;;14.70;;
65071;SDS011;51663;52.310;17.016;2024-03-22T08:53:35;20.90;;;16.33;;
65071;SDS011;51663;52.310;17.016;2024-03-22T08:56:36;22.02;;;15.55;;
65071;SDS011;51663;52.310;17.016;2024-03-22T08:59:37;20.70;;;14.73;;
65071;SDS011;51663;52.310;17.016;2024-03-22T09:02:40;17.50;;;13.55;;
65071;SDS011;51663;52.310;17.016;2024-03-22T09:05:41;16.83;;;13.73;;
65071;SDS011;51663;52.310;17.016;2024-03-22T09:08:42;19.70;;;15.82;;
65071;SDS011;51663;52.310;17.016;2024-03-22T09:11:43;18.00;;;13.68;;
65071;SDS011;51663;52.310;17.016;2024-03-22T09:14:45;18.73;;;14.70;;
65071;SDS011;51663;52.310;17.016;2024-03-22T09:17:46;14.98;;;13.27;;
65071;SDS011;51663;52.310;17.016;2024-03-22T09:20:48;18.08;;;14.40;;
65071;SDS011;51663;52.310;17.016;2024-03-22T09:23:49;16.20;;;13.50;;
65071;SDS011;51663;52.310;17.016;2024-03-22T09:26:50;16.50;;;13.10;;
65071;SDS011;51663;52.310;17.016;2024-03-22T09:29:51;19.38;;;13.95;;
65071;SDS011;51663;52.310;17.016;2024-03-22T09:32:53;19.98;;;14.35;;
65071;SDS011;51663;52.310;17.016;2024-03-22T09:35:54;22.48;;;14.60;;
65071;SDS011;51663;52.310;17.016;2024-03-22T09:38:56;17.58;;;14.63;;
65071;SDS011;51663;52.310;17.016;2024-03-22T09:41:57;19.42;;;15.13;;
65071;SDS011;51663;52.310;17.016;2024-03-22T09:44:59;19.10;;;15.70;;
65071;SDS011;51663;52.310;17.016;2024-03-22T09:48:03;19.90;;;15.45;;
65071;SDS011;51663;52.310;17.016;2024-03-22T09:51:05;18.13;;;14.98;;
65071;SDS011;51663;52.310;17.016;2024-03-22T09:54:08;18.67;;;14.77;;
65071;SDS011;51663;52.310;17.016;2024-03-22T09:57:11;21.88;;;15.27;;
65071;SDS011;51663;52.310;17.016;2024-03-22T10:00:18;22.42;;;15.98;;
65071;SDS011;51663;52.310;17.016;2024-03-22T10:03:20;20.27;;;16.13;;
65071;SDS011;51663;52.310;17.016;2024-03-22T10:06:22;20.67;;;15.60;;
65071;SDS011;51663;52.310;17.016;2024-03-22T10:09:30;21.65;;;15.77;;
65071;SDS011;51663;52.310;17.016;2024-03-22T10:12:31;19.27;;;15.15;;
65071;SDS011;51663;52.310;17.016;2024-03-22T10:15:33;19.38;;;16.02;;
65071;SDS011;51663;52.310;17.016;2024-03-22T10:18:34;25.13;;;16.15;;
65071;SDS011;51663;52.310;17.016;2024-03-22T10:21:36;28.63;;;14.70;;
65071;SDS011;51663;52.310;17.016;2024-03-22T10:24:37;19.33;;;14.93;;
65071;SDS011;51663;52.310;17.016;2024-03-22T10:27:38;19.83;;;14.63;;
65071;SDS011;51663;52.310;17.016;2024-03-22T10:30:40;18.10;;;14.80;;
65071;SDS011;51663;52.310;17.016;2024-03-22T10:33:44;19.67;;;14.55;;
65071;SDS011;51663;52.310;17.016;2024-03-22T10:36:46;16.65;;;13.77;;
65071;SDS011;51663;52.310;17.016;2024-03-22T10:39:48;16.48;;;13.57;;
65071;SDS011;51663;52.310;17.016;2024-03-22T10:43:01;15.38;;;12.10;;
65071;SDS011;51663;52.310;17.016;2024-03-22T10:46:07;22.17;;;13.82;;
65071;SDS011;51663;52.310;17.016;2024-03-22T10:49:10;14.85;;;13.23;;
65071;SDS011;51663;52.310;17.016;2024-03-22T10:52:16;24.55;;;13.43;;
65071;SDS011;51663;52.310;17.016;2024-03-22T10:56:00;14.15;;;12.52;;
65071;SDS011;51663;52.310;17.016;2024-03-22T10:58:50;17.55;;;12.68;;
65071;SDS011;51663;52.310;17.016;2024-03-22T11:01:53;14.10;;;11.90;;
65071;SDS011;51663;52.310;17.016;2024-03-22T11:04:57;15.63;;;11.82;;
65071;SDS011;51663;52.310;17.016;2024-03-22T11:07:59;16.02;;;12.70;;
65071;SDS011;51663;52.310;17.016;2024-03-22T11:11:11;17.42;;;12.75;;
65071;SDS011;51663;52.310;17.016;2024-03-22T11:14:12;19.85;;;13.98;;
65071;SDS011;51663;52.310;17.016;2024-03-22T11:17:13;16.50;;;12.50;;
65071;SDS011;51663;52.310;17.016;2024-03-22T11:20:15;16.33;;;13.15;;
65071;SDS011;51663;52.310;17.016;2024-03-22T11:23:16;18.30;;;12.82;;
65071;SDS011;51663;52.310;17.016;2024-03-22T11:26:17;17.65;;;11.95;;
65071;SDS011;51663;52.310;17.016;2024-03-22T11:29:20;14.90;;;11.68;;
65071;SDS011;51663;52.310;17.016;2024-03-22T11:32:21;18.23;;;13.07;;
65071;SDS011;51663;52.310;17.016;2024-03-22T11:35:23;15.70;;;12.88;;
65071;SDS011;51663;52.310;17.016;2024-03-22T11:38:25;17.40;;;13.18;;
65071;SDS011;51663;52.310;17.016;2024-03-22T11:41:28;17.90;;;13.15;;
65071;SDS011;51663;52.310;17.016;2024-03-22T11:44:30;22.75;;;13.65;;
65071;SDS011;51663;52.310;17.016;2024-03-22T11:47:33;16.48;;;12.35;;
65071;SDS011;51663;52.310;17.016;2024-03-22T11:50:35;14.80;;;12.00;;
65071;SDS011;51663;52.310;17.016;2024-03-22T11:53:38;17.30;;;12.75;;
65071;SDS011;51663;52.310;17.016;2024-03-22T11:56:40;16.80;;;12.68;;
65071;SDS011;51663;52.310;17.016;2024-03-22T11:59:41;16.30;;;12.48;;
65071;SDS011;51663;52.310;17.016;2024-03-22T12:02:43;20.58;;;13.77;;
65071;SDS011;51663;52.310;17.016;2024-03-22T12:05:45;15.05;;;11.77;;
65071;SDS011;51663;52.310;17.016;2024-03-22T12:08:46;15.15;;;11.93;;
65071;SDS011;51663;52.310;17.016;2024-03-22T12:11:48;15.80;;;12.55;;
65071;SDS011;51663;52.310;17.016;2024-03-22T12:14:49;19.40;;;13.95;;
65071;SDS011;51663;52.310;17.016;2024-03-22T12:17:53;18.35;;;13.63;;
65071;SDS011;51663;52.310;17.016;2024-03-22T12:20:54;18.75;;;12.80;;
65071;SDS011;51663;52.310;17.016;2024-03-22T12:23:55;16.58;;;12.10;;
65071;SDS011;51663;52.310;17.016;2024-03-22T12:26:57;16.55;;;12.10;;
65071;SDS011;51663;52.310;17.016;2024-03-22T12:29:58;16.10;;;12.07;;
65071;SDS011;51663;52.310;17.016;2024-03-22T12:32:59;17.42;;;13.30;;
65071;SDS011;51663;52.310;17.016;2024-03-22T12:36:02;20.55;;;14.27;;
65071;SDS011;51663;52.310;17.016;2024-03-22T12:39:04;17.73;;;12.93;;
65071;SDS011;51663;52.310;17.016;2024-03-22T12:42:06;17.88;;;13.50;;
65071;SDS011;51663;52.310;17.016;2024-03-22T12:45:07;16.13;;;11.85;;
65071;SDS011;51663;52.310;17.016;2024-03-22T12:48:08;19.08;;;13.48;;
65071;SDS011;51663;52.310;17.016;2024-03-22T12:51:10;21.85;;;14.10;;
65071;SDS011;51663;52.310;17.016;2024-03-22T12:54:12;22.23;;;14.07;;
65071;SDS011;51663;52.310;17.016;2024-03-22T12:57:15;24.48;;;13.85;;
65071;SDS011;51663;52.310;17.016;2024-03-22T13:00:16;24.67;;;14.38;;
65071;SDS011;51663;52.310;17.016;2024-03-22T13:03:19;28.98;;;17.42;;
65071;SDS011;51663;52.310;17.016;2024-03-22T13:06:20;36.63;;;18.27;;
65071;SDS011;51663;52.310;17.016;2024-03-22T13:09:21;34.97;;;17.52;;
65071;SDS011;51663;52.310;17.016;2024-03-22T13:12:22;22.88;;;13.98;;
65071;SDS011;51663;52.310;17.016;2024-03-22T13:15:23;22.77;;;14.00;;
65071;SDS011;51663;52.310;17.016;2024-03-22T13:18:26;29.20;;;16.17;;
65071;SDS011;51663;52.310;17.016;2024-03-22T13:21:27;23.05;;;14.82;;
65071;SDS011;51663;52.310;17.016;2024-03-22T13:24:28;20.55;;;13.77;;
65071;SDS011;51663;52.310;17.016;2024-03-22T13:27:30;19.40;;;13.32;;
65071;SDS011;51663;52.310;17.016;2024-03-22T13:30:31;15.43;;;12.20;;
65071;SDS011;51663;52.310;17.016;2024-03-22T13:33:33;16.27;;;11.95;;
65071;SDS011;51663;52.310;17.016;2024-03-22T13:36:35;20.20;;;12.85;;
65071;SDS011;51663;52.310;17.016;2024-03-22T13:39:38;18.25;;;12.68;;
65071;SDS011;51663;52.310;17.016;2024-03-22T13:42:39;18.20;;;12.35;;
65071;SDS011;51663;52.310;17.016;2024-03-22T13:45:41;19.60;;;12.82;;
65071;SDS011;51663;52.310;17.016;2024-03-22T13:48:43;21.70;;;12.63;;
65071;SDS011;51663;52.310;17.016;2024-03-22T13:51:45;18.38;;;12.82;;
65071;SDS011;51663;52.310;17.016;2024-03-22T13:54:46;16.00;;;12.38;;
65071;SDS011;51663;52.310;17.016;2024-03-22T13:57:48;19.75;;;13.57;;
65071;SDS011;51663;52.310;17.016;2024-03-22T14:00:49;17.27;;;11.68;;
65071;SDS011;51663;52.310;17.016;2024-03-22T14:03:50;23.45;;;13.23;;
65071;SDS011;51663;52.310;17.016;2024-03-22T14:06:52;22.23;;;13.90;;
65071;SDS011;51663;52.310;17.016;2024-03-22T14:09:53;26.00;;;14.55;;
65071;SDS011;51663;52.310;17.016;2024-03-22T14:12:54;22.58;;;14.02;;
65071;SDS011;51663;52.310;17.016;2024-03-22T14:15:55;21.05;;;12.85;;
65071;SDS011;51663;52.310;17.016;2024-03-22T14:18:57;19.17;;;12.95;;
65071;SDS011;51663;52.310;17.016;2024-03-22T14:21:58;19.30;;;13.63;;
65071;SDS011;51663;52.310;17.016;2024-03-22T14:24:59;21.55;;;12.00;;
65071;SDS011;51663;52.310;17.016;2024-03-22T14:28:02;21.20;;;13.60;;
65071;SDS011;51663;52.310;17.016;2024-03-22T14:31:04;17.33;;;11.63;;
65071;SDS011;51663;52.310;17.016;2024-03-22T14:34:08;17.63;;;11.80;;
65071;SDS011;51663;52.310;17.016;2024-03-22T14:37:10;16.58;;;11.43;;
65071;SDS011;51663;52.310;17.016;2024-03-22T14:40:12;20.60;;;12.43;;
65071;SDS011;51663;52.310;17.016;2024-03-22T14:43:15;21.55;;;11.75;;
65071;SDS011;51663;52.310;17.016;2024-03-22T14:46:16;17.65;;;12.73;;
65071;SDS011;51663;52.310;17.016;2024-03-22T14:49:20;16.63;;;11.88;;
65071;SDS011;51663;52.310;17.016;2024-03-22T14:52:21;18.10;;;10.88;;
65071;SDS011;51663;52.310;17.016;2024-03-22T14:55:23;22.05;;;11.65;;
65071;SDS011;51663;52.310;17.016;2024-03-22T14:58:24;22.00;;;13.07;;
65071;SDS011;51663;52.310;17.016;2024-03-22T15:01:27;32.17;;;21.25;;
65071;SDS011;51663;52.310;17.016;2024-03-22T15:04:28;19.48;;;12.82;;
65071;SDS011;51663;52.310;17.016;2024-03-22T15:07:29;18.30;;;11.57;;
65071;SDS011;51663;52.310;17.016;2024-03-22T15:10:31;19.05;;;11.68;;
65071;SDS011;51663;52.310;17.016;2024-03-22T15:13:32;19.02;;;12.52;;
65071;SDS011;51663;52.310;17.016;2024-03-22T15:16:34;18.88;;;13.05;;
65071;SDS011;51663;52.310;17.016;2024-03-22T15:19:35;17.48;;;12.35;;
65071;SDS011;51663;52.310;17.016;2024-03-22T15:22:36;18.23;;;12.70;;
65071;SDS011;51663;52.310;17.016;2024-03-22T15:25:38;21.48;;;13.52;;
65071;SDS011;51663;52.310;17.016;2024-03-22T15:28:39;18.80;;;13.25;;
65071;SDS011;51663;52.310;17.016;2024-03-22T15:31:41;21.08;;;13.20;;
65071;SDS011;51663;52.310;17.016;2024-03-22T15:34:42;19.77;;;12.35;;
65071;SDS011;51663;52.310;17.016;2024-03-22T15:37:44;22.00;;;13.07;;
65071;SDS011;51663;52.310;17.016;2024-03-22T15:40:49;21.88;;;12.70;;
65071;SDS011;51663;52.310;17.016;2024-03-22T15:43:52;26.73;;;14.10;;
65071;SDS011;51663;52.310;17.016;2024-03-22T15:46:53;19.85;;;12.70;;
65071;SDS011;51663;52.310;17.016;2024-03-22T15:49:56;20.30;;;13.48;;
65071;SDS011;51663;52.310;17.016;2024-03-22T15:52:57;26.58;;;13.68;;
65071;SDS011;51663;52.310;17.016;2024-03-22T15:55:59;19.77;;;13.02;;
65071;SDS011;51663;52.310;17.016;2024-03-22T15:59:00;22.60;;;13.52;;
65071;SDS011;51663;52.310;17.016;2024-03-22T16:02:01;31.73;;;16.95;;
65071;SDS011;51663;52.310;17.016;2024-03-22T16:05:04;30.77;;;16.98;;
65071;SDS011;51663;52.310;17.016;2024-03-22T16:08:06;29.13;;;17.38;;
65071;SDS011;51663;52.310;17.016;2024-03-22T16:11:07;33.33;;;20.67;;
65071;SDS011;51663;52.310;17.016;2024-03-22T16:14:09;38.50;;;21.80;;
65071;SDS011;51663;52.310;17.016;2024-03-22T16:17:10;41.63;;;21.90;;
65071;SDS011;51663;52.310;17.016;2024-03-22T16:20:13;99.05;;;47.35;;
65071;SDS011;51663;52.310;17.016;2024-03-22T16:23:14;78.28;;;38.38;;
65071;SDS011;51663;52.310;17.016;2024-03-22T16:26:15;56.92;;;29.42;;
65071;SDS011;51663;52.310;17.016;2024-03-22T16:29:16;32.35;;;20.00;;
65071;SDS011;51663;52.310;17.016;2024-03-22T16:32:20;33.42;;;18.75;;
65071;SDS011;51663;52.310;17.016;2024-03-22T16:35:21;31.95;;;19.35;;
65071;SDS011;51663;52.310;17.016;2024-03-22T16:38:22;45.13;;;23.77;;
65071;SDS011;51663;52.310;17.016;2024-03-22T16:41:23;49.22;;;26.63;;
65071;SDS011;51663;52.310;17.016;2024-03-22T16:44:25;41.13;;;25.42;;
65071;SDS011;51663;52.310;17.016;2024-03-22T16:47:26;41.85;;;23.33;;
65071;SDS011;51663;52.310;17.016;2024-03-22T16:50:27;37.10;;;22.60;;
65071;SDS011;51663;52.310;17.016;2024-03-22T16:53:28;39.83;;;24.00;;
65071;SDS011;51663;52.310;17.016;2024-03-22T16:56:30;42.83;;;28.88;;
65071;SDS011;51663;52.310;17.016;2024-03-22T16:59:31;46.67;;;28.77;;
65071;SDS011;51663;52.310;17.016;2024-03-22T17:02:32;39.20;;;24.75;;
65071;SDS011;51663;52.310;17.016;2024-03-22T17:05:33;24.80;;;15.65;;
65071;SDS011;51663;52.310;17.016;2024-03-22T17:08:35;20.80;;;14.40;;
65071;SDS011;51663;52.310;17.016;2024-03-22T17:11:37;21.65;;;13.50;;
65071;SDS011;51663;52.310;17.016;2024-03-22T17:14:38;24.43;;;14.17;;
65071;SDS011;51663;52.310;17.016;2024-03-22T17:17:39;18.87;;;13.27;;
65071;SDS011;51663;52.310;17.016;2024-03-22T17:20:40;22.77;;;13.98;;
65071;SDS011;51663;52.310;17.016;2024-03-22T17:23:42;27.92;;;15.80;;
65071;SDS011;51663;52.310;17.016;2024-03-22T17:26:44;26.00;;;15.50;;
65071;SDS011;51663;52.310;17.016;2024-03-22T17:29:45;28.50;;;16.20;;